maksatbilgi.com alexa rank chart, maksatbilgi.com alexa rank daily changes

maksatbilgi.com alexa rank chart, maksatbilgi.com alexa rank daily changes

maksatbilgi.com
Actual rank:
379 390

RANK HISTORY

Date Rank Diff
2017/10/19 379 390 +4 080
2017/10/18 375 310 -634
2017/10/17 375 944 +10 004
2017/10/16 365 940 +15 064
2017/10/14 350 876 +13 553
2017/10/13 337 323 -798
2017/10/12 338 121 -1 853
2017/10/11 339 974 -1 424
2017/10/10 341 398 +4 281
2017/10/09 337 117 +3 852
2017/10/08 333 265 +21 609
2017/10/07 311 656 +3 758
2017/10/06 307 898 +1 765
2017/10/05 306 133 -485
2017/10/04 306 618 +12 032
2017/10/03 294 586 +4 213
2017/10/02 290 373 -2 178
2017/10/01 292 551 -811
2017/09/30 293 362 +726
2017/09/29 292 636 -1 699
2017/09/28 294 335 +2 066
2017/09/27 292 269 -111
2017/09/26 292 380 -2 608
2017/09/25 294 988 -7 269
2017/09/24 302 257 -6 506
2017/09/23 308 763 -18 551
2017/09/22 327 314 -3 794
2017/09/20 331 108 -174
2017/09/19 331 282 -6 246
2017/09/18 337 528 -1 211
2017/09/17 338 739 -11 019
2017/09/16 349 758 -2 288
2017/09/15 352 046 -17 176
2017/09/14 369 222 +1 067
2017/09/13 368 155 -2 886
2017/09/12 371 041 +7 674
2017/09/11 363 367 +2 271
2017/09/10 361 096 +98
2017/09/09 360 998 +478
2017/09/08 360 520 -17 926
2017/09/07 378 446 +2 609
2017/09/06 375 837 +12 227
2017/09/05 363 610 -771
2017/09/04 364 381 -19 259
2017/09/03 383 640 -3 350
2017/09/02 386 990 +7 233
2017/09/01 379 757 +16 524
2017/08/31 363 233 -1 235
2017/08/30 364 468 -3 113
2017/08/29 367 581 -3 904
2017/08/28 371 485 -6 734
2017/08/27 378 219 +1 310
2017/08/26 376 909 -3 377
2017/08/25 380 286 -1 530
2017/08/24 381 816 +14 068
2017/08/23 367 748 -2 722
2017/08/22 370 470 +2 386
2017/08/21 368 084 +6 720
2017/08/20 361 364

WIDGET FOR YOUR SITE

DOMAINS WITH THE NEAREST RANK

Domain Rank
tvvisie.be 379 385
firstglobalmoney.com 379 386
radiantenterprise.com 379 387
eve-gatecheck.space 379 388
britishacademy.az 379 389
maksatbilgi.com 379 390
efdlrs.com 379 391
supportimusicali.it 379 392
chronomania.net 379 393
hr-inforadio.de 379 394
aspengrovestudios.space 379 395

DOMAINS WITH THE NEAREST RANK BY TLD .com

Domain Rank
jsemcioa.com 379 373
quxiu.com 379 376
caratanam.com 379 383
firstglobalmoney.com 379 386
radiantenterprise.com 379 387
maksatbilgi.com 379 390
efdlrs.com 379 391
android-kingdom.com 379 397
xtqzf.com 379 400
olimptds.com 379 401
kurinuki.com 379 403